createdAt,value
2023-01-04T00:02:03.454Z,60.48
2023-01-04T00:04:31.957Z,60.88
2023-01-04T00:07:00.278Z,60.75
2023-01-04T00:09:28.489Z,61.07
2023-01-04T00:11:56.849Z,60.82
2023-01-04T00:14:24.822Z,60.34
2023-01-04T00:16:54.329Z,61.00
2023-01-04T00:19:22.825Z,60.71
2023-01-04T00:21:54.043Z,60.75
2023-01-04T00:24:22.628Z,61.05
2023-01-04T00:26:50.753Z,59.81
2023-01-04T00:29:19.136Z,60.56
2023-01-04T00:31:47.614Z,60.42
2023-01-04T00:34:18.871Z,60.36
2023-01-04T00:36:47.665Z,60.58
2023-01-04T00:39:18.196Z,60.98
2023-01-04T00:41:58.787Z,60.35
2023-01-04T00:44:28.991Z,60.43
2023-01-04T00:47:00.694Z,60.88
2023-01-04T00:49:31.572Z,60.23
2023-01-04T00:52:00.386Z,60.88
2023-01-04T00:54:29.025Z,60.16
2023-01-04T00:56:57.078Z,60.10
2023-01-04T00:59:25.199Z,60.24
2023-01-04T01:01:53.930Z,60.07
2023-01-04T01:04:25.632Z,59.88
2023-01-04T01:06:56.009Z,60.34
2023-01-04T01:09:24.414Z,60.36
2023-01-04T01:11:53.712Z,60.16
2023-01-04T01:14:25.351Z,60.35
2023-01-04T01:16:57.840Z,60.21
2023-01-04T01:19:29.170Z,60.22
2023-01-04T01:21:59.429Z,61.06
2023-01-04T01:24:28.884Z,60.50
2023-01-04T01:26:56.977Z,61.24
2023-01-04T01:29:25.283Z,61.13
2023-01-04T01:31:54.510Z,61.09
2023-01-04T01:34:22.792Z,61.59
2023-01-04T01:36:50.919Z,61.33
2023-01-04T01:39:20.556Z,61.38
2023-01-04T01:41:49.122Z,61.12
2023-01-04T01:44:58.503Z,61.00
2023-01-04T01:47:31.364Z,61.17
2023-01-04T01:49:59.534Z,60.38
2023-01-04T01:52:31.959Z,61.31
2023-01-04T01:55:04.394Z,61.13
2023-01-04T01:57:35.651Z,60.73
2023-01-04T02:00:08.347Z,60.53
2023-01-04T02:02:46.384Z,60.46
2023-01-04T02:05:15.345Z,60.46
2023-01-04T02:07:44.454Z,60.89
2023-01-04T02:10:15.132Z,60.38
2023-01-04T02:12:44.369Z,60.44
2023-01-04T02:15:13.128Z,60.35
2023-01-04T02:17:50.527Z,60.43
2023-01-04T02:20:32.152Z,60.31
2023-01-04T02:23:30.577Z,60.62
2023-01-04T02:26:26.750Z,61.71
2023-01-04T02:29:37.254Z,61.08
2023-01-04T02:32:15.673Z,60.81
2023-01-04T02:34:58.537Z,61.22
2023-01-04T02:37:37.988Z,60.75
2023-01-04T02:40:14.168Z,60.35
2023-01-04T02:43:12.229Z,60.79
2023-01-04T02:45:48.201Z,60.52
2023-01-04T02:48:35.252Z,61.59
2023-01-04T02:51:03.229Z,61.48
2023-01-04T02:53:36.556Z,61.44
2023-01-04T02:56:16.144Z,61.34
2023-01-04T02:59:00.248Z,61.29
2023-01-04T03:01:54.647Z,61.09
2023-01-04T03:04:55.632Z,61.53
2023-01-04T03:07:29.086Z,61.47
2023-01-04T03:10:06.983Z,60.53
2023-01-04T03:12:43.014Z,61.92
2023-01-04T03:15:16.087Z,61.59
2023-01-04T03:17:50.466Z,61.00
2023-01-04T03:20:21.753Z,61.24
2023-01-04T03:23:12.820Z,61.70
2023-01-04T03:26:02.318Z,61.40
2023-01-04T03:28:54.143Z,61.80
2023-01-04T03:31:46.293Z,62.05
2023-01-04T03:34:32.619Z,61.56
2023-01-04T03:37:15.921Z,61.45
2023-01-04T03:40:12.228Z,61.64
2023-01-04T03:43:05.327Z,61.24
2023-01-04T03:45:58.156Z,61.18
2023-01-04T03:48:33.349Z,61.20
2023-01-04T03:51:08.445Z,61.40
2023-01-04T03:53:46.622Z,61.13
2023-01-04T03:56:17.217Z,61.47
2023-01-04T03:58:45.616Z,61.04
2023-01-04T04:01:14.249Z,61.25
2023-01-04T04:04:00.270Z,61.42
2023-01-04T04:06:46.053Z,61.52
2023-01-04T04:09:15.827Z,61.99
2023-01-04T04:11:44.178Z,61.87
2023-01-04T04:14:12.261Z,61.61
2023-01-04T04:16:40.909Z,61.30
2023-01-04T04:19:09.444Z,60.75
2023-01-04T04:21:37.862Z,61.20
2023-01-04T04:24:07.606Z,61.48
2023-01-04T04:26:37.144Z,61.19
2023-01-04T04:29:05.244Z,61.30
2023-01-04T04:31:33.569Z,61.30
2023-01-04T04:34:01.658Z,61.19
2023-01-04T04:36:29.687Z,60.92
2023-01-04T04:38:58.078Z,61.49
2023-01-04T04:41:41.426Z,61.39
2023-01-04T04:44:13.819Z,60.98
2023-01-04T04:46:42.341Z,60.97
2023-01-04T04:49:11.442Z,60.94
2023-01-04T04:51:39.619Z,60.71
2023-01-04T04:54:09.529Z,60.55
2023-01-04T04:56:38.958Z,60.04
2023-01-04T04:59:07.424Z,59.78
2023-01-04T05:01:36.982Z,60.00
2023-01-04T05:04:05.800Z,59.72
2023-01-04T05:06:34.182Z,59.77
2023-01-04T05:09:02.468Z,59.85
2023-01-04T05:11:48.506Z,59.59
2023-01-04T05:14:16.731Z,59.27
2023-01-04T05:16:46.486Z,59.17
2023-01-04T05:19:14.760Z,59.17
2023-01-04T05:21:43.014Z,59.12
2023-01-04T05:24:13.169Z,59.35
2023-01-04T05:26:41.686Z,59.15
2023-01-04T05:29:30.313Z,59.25
2023-01-04T05:31:59.112Z,59.66
2023-01-04T05:34:27.165Z,59.58
2023-01-04T05:36:55.146Z,59.72
2023-01-04T05:39:23.530Z,59.84
2023-01-04T05:42:09.118Z,59.51
2023-01-04T05:44:37.396Z,59.60
2023-01-04T05:47:12.910Z,59.67
2023-01-04T05:49:43.095Z,59.34
2023-01-04T05:52:11.733Z,59.10
2023-01-04T05:54:39.824Z,59.20
2023-01-04T05:57:08.318Z,58.94
2023-01-04T05:59:42.121Z,58.81
2023-01-04T06:02:17.957Z,58.99
2023-01-04T06:04:46.938Z,59.21
2023-01-04T06:07:16.071Z,58.99
2023-01-04T06:09:44.654Z,58.88
2023-01-04T06:12:13.747Z,58.70
2023-01-04T06:14:42.412Z,58.71
2023-01-04T06:17:10.669Z,58.64
2023-01-04T06:19:40.446Z,58.52
2023-01-04T06:22:08.662Z,59.10
2023-01-04T06:24:36.736Z,58.64
2023-01-04T06:27:05.375Z,58.90
2023-01-04T06:29:33.430Z,58.50
2023-01-04T06:32:01.543Z,58.60
2023-01-04T06:34:31.364Z,58.28
2023-01-04T06:37:01.155Z,58.02
2023-01-04T06:39:29.456Z,58.24
2023-01-04T06:42:05.498Z,58.03
2023-01-04T06:44:34.911Z,58.06
2023-01-04T06:47:02.984Z,57.84
2023-01-04T06:49:30.960Z,57.82
2023-01-04T06:52:00.809Z,57.77
2023-01-04T06:54:29.837Z,58.07
2023-01-04T06:56:57.974Z,57.97
2023-01-04T06:59:26.241Z,57.95
2023-01-04T07:01:54.391Z,58.07
2023-01-04T07:04:22.596Z,57.89
2023-01-04T07:06:50.989Z,58.02
2023-01-04T07:09:20.682Z,57.97
2023-01-04T07:11:48.775Z,58.25
2023-01-04T07:14:17.246Z,58.13
2023-01-04T07:16:45.384Z,58.04
2023-01-04T07:19:13.433Z,58.21
2023-01-04T07:21:42.497Z,58.11
2023-01-04T07:24:10.926Z,58.35
2023-01-04T07:26:40.349Z,58.39
2023-01-04T07:29:17.258Z,58.36
2023-01-04T07:31:48.004Z,58.69
2023-01-04T07:34:17.419Z,58.54
2023-01-04T07:36:45.791Z,58.70
2023-01-04T07:39:14.085Z,58.71
2023-01-04T07:41:48.114Z,58.79
2023-01-04T07:44:19.570Z,58.63
2023-01-04T07:46:48.293Z,58.61
2023-01-04T07:49:18.587Z,58.58
2023-01-04T07:51:47.700Z,58.89
2023-01-04T07:54:16.573Z,58.80
2023-01-04T07:56:47.234Z,58.78
2023-01-04T07:59:17.006Z,58.85
2023-01-04T08:01:45.970Z,59.10
2023-01-04T08:04:15.148Z,59.08
2023-01-04T08:06:46.588Z,59.09
2023-01-04T08:09:15.126Z,59.24
2023-01-04T08:11:43.082Z,58.84
2023-01-04T08:14:13.293Z,58.76
2023-01-04T08:16:43.488Z,59.03
2023-01-04T08:19:16.170Z,58.91
2023-01-04T08:21:45.492Z,58.64
2023-01-04T08:24:15.613Z,58.77
2023-01-04T08:26:43.779Z,58.86
2023-01-04T08:29:14.586Z,59.25
2023-01-04T08:31:43.162Z,59.55
2023-01-04T08:34:11.748Z,59.61
2023-01-04T08:36:52.027Z,59.51
2023-01-04T08:39:25.265Z,59.91
2023-01-04T08:42:00.399Z,59.63
2023-01-04T08:44:35.520Z,59.59
2023-01-04T08:47:03.874Z,59.58
2023-01-04T08:49:31.937Z,59.12
2023-01-04T08:52:00.140Z,59.21
2023-01-04T08:54:28.347Z,59.28
2023-01-04T08:56:56.514Z,59.42
2023-01-04T08:59:24.904Z,58.93
2023-01-04T09:01:57.397Z,59.03
2023-01-04T09:04:30.013Z,58.87
2023-01-04T09:06:59.033Z,58.86
2023-01-04T09:09:27.220Z,58.90
2023-01-04T09:11:55.537Z,58.90
2023-01-04T09:14:23.795Z,59.03
2023-01-04T09:16:52.011Z,59.07
2023-01-04T09:19:22.767Z,58.80
2023-01-04T09:21:50.975Z,58.73
2023-01-04T09:24:19.380Z,58.65
2023-01-04T09:26:47.996Z,58.76
2023-01-04T09:29:16.061Z,58.83
2023-01-04T09:31:45.997Z,58.76
2023-01-04T09:34:17.083Z,58.55
2023-01-04T09:36:48.465Z,58.73
2023-01-04T09:39:22.949Z,58.59
2023-01-04T09:41:58.191Z,58.49
2023-01-04T09:45:21.422Z,58.58
2023-01-04T09:47:34.694Z,58.37
2023-01-04T09:50:10.479Z,58.22
2023-01-04T09:52:50.291Z,58.16
2023-01-04T09:55:38.671Z,58.24
2023-01-04T09:58:18.841Z,58.13
2023-01-04T10:00:51.344Z,58.17
2023-01-04T10:03:24.873Z,58.24
2023-01-04T10:05:54.989Z,58.07
2023-01-04T10:08:24.828Z,58.08
2023-01-04T10:11:05.270Z,57.85
2023-01-04T10:13:53.110Z,57.71
2023-01-04T10:17:01.899Z,57.60
2023-01-04T10:22:29.094Z,57.58
2023-01-04T10:25:11.018Z,57.63
2023-01-04T10:27:50.906Z,57.59
2023-01-04T10:30:32.167Z,57.80
2023-01-04T10:33:09.017Z,57.72
2023-01-04T10:35:37.343Z,57.54
2023-01-04T10:38:17.181Z,57.86
2023-01-04T10:40:50.425Z,57.33
2023-01-04T10:44:11.482Z,57.25
2023-01-04T10:46:32.122Z,57.20
2023-01-04T10:49:10.907Z,57.67
2023-01-04T10:51:45.733Z,57.63
2023-01-04T10:54:22.417Z,57.88
2023-01-04T10:56:58.630Z,58.15
2023-01-04T10:59:35.286Z,57.83
2023-01-04T11:02:13.982Z,57.99
2023-01-04T11:04:45.793Z,57.95
2023-01-04T11:07:19.601Z,57.79
2023-01-04T11:09:53.228Z,58.20
2023-01-04T11:12:24.664Z,57.95
2023-01-04T11:14:53.087Z,58.12
2023-01-04T11:17:22.805Z,58.12
2023-01-04T11:19:51.293Z,58.15
2023-01-04T11:22:25.213Z,58.20
2023-01-04T11:27:52.263Z,58.48
2023-01-04T11:30:23.683Z,58.18
2023-01-04T11:32:58.220Z,58.36
2023-01-04T11:35:42.843Z,58.32
2023-01-04T11:38:14.630Z,58.46
2023-01-04T11:40:43.578Z,59.42
2023-01-04T11:43:17.952Z,59.50
2023-01-04T11:45:58.199Z,59.43
2023-01-04T11:48:35.305Z,59.81
2023-01-04T11:51:05.004Z,59.89
2023-01-04T11:53:34.971Z,60.56
2023-01-04T11:56:19.624Z,60.11
2023-01-04T11:59:11.817Z,60.49
2023-01-04T12:01:42.109Z,60.24
2023-01-04T12:04:17.243Z,60.07
2023-01-04T12:06:51.693Z,61.27
2023-01-04T12:09:21.892Z,60.79
2023-01-04T12:11:52.247Z,60.95
2023-01-04T12:14:28.124Z,60.34
2023-01-04T12:17:03.020Z,60.30
2023-01-04T12:19:32.056Z,60.29
2023-01-04T12:22:02.982Z,60.00
2023-01-04T12:24:33.418Z,59.90
2023-01-04T12:27:02.624Z,60.27
2023-01-04T12:29:43.769Z,60.27
2023-01-04T12:32:42.203Z,60.48
2023-01-04T12:36:06.839Z,60.76
2023-01-04T12:39:05.738Z,61.09
2023-01-04T12:42:17.788Z,61.40
2023-01-04T12:45:19.069Z,61.77
2023-01-04T12:48:05.714Z,62.11
2023-01-04T12:51:37.390Z,61.61
2023-01-04T12:54:31.663Z,62.49
2023-01-04T12:57:11.879Z,62.71
2023-01-04T12:59:53.578Z,62.31
2023-01-04T13:02:24.858Z,61.98
2023-01-04T13:05:16.911Z,61.89
2023-01-04T13:07:46.732Z,61.83
2023-01-04T13:10:28.736Z,61.37
2023-01-04T13:13:21.989Z,61.46
2023-01-04T13:16:02.661Z,61.78
2023-01-04T13:18:37.955Z,61.65
2023-01-04T13:21:13.797Z,61.71
2023-01-04T13:23:49.519Z,62.35
2023-01-04T13:26:37.119Z,62.21
2023-01-04T13:29:16.770Z,62.92
2023-01-04T13:31:52.597Z,63.15
2023-01-04T13:34:23.893Z,63.14
2023-01-04T13:36:57.610Z,63.06
2023-01-04T13:39:26.071Z,62.76
2023-01-04T13:41:56.303Z,62.72
2023-01-04T13:47:30.636Z,63.56
2023-01-04T13:49:59.152Z,62.96
2023-01-04T13:55:22.153Z,63.04
2023-01-04T13:57:56.412Z,63.55
2023-01-04T14:00:31.087Z,64.17
2023-01-04T14:03:15.678Z,63.45
2023-01-04T14:05:49.275Z,64.57
2023-01-04T14:08:22.658Z,63.59
2023-01-04T14:10:51.194Z,65.16
2023-01-04T14:13:21.634Z,64.48
2023-01-04T14:16:05.788Z,64.86
2023-01-04T14:18:34.146Z,64.62
2023-01-04T14:21:02.312Z,64.29
2023-01-04T14:23:34.708Z,64.49
2023-01-04T14:26:03.116Z,64.14
2023-01-04T14:28:43.151Z,64.25
2023-01-04T14:31:36.092Z,63.89
2023-01-04T14:34:16.994Z,64.41
2023-01-04T14:36:46.087Z,63.84
2023-01-04T14:39:27.293Z,64.14
2023-01-04T14:41:57.697Z,63.91
2023-01-04T14:44:30.906Z,62.77
2023-01-04T14:47:01.331Z,63.18
2023-01-04T14:49:31.740Z,63.41
2023-01-04T14:52:02.102Z,63.25
2023-01-04T14:54:35.317Z,63.30
2023-01-04T14:57:04.329Z,62.62
2023-01-04T14:59:33.685Z,62.46
2023-01-04T15:02:01.843Z,62.41
2023-01-04T15:04:30.450Z,62.74
2023-01-04T15:07:00.195Z,62.43
2023-01-04T15:09:29.364Z,62.47
2023-01-04T15:11:57.959Z,62.43
2023-01-04T15:14:26.366Z,62.79
2023-01-04T15:16:55.866Z,62.44
2023-01-04T15:19:24.275Z,62.51
2023-01-04T15:21:52.545Z,63.04
2023-01-04T15:24:20.808Z,62.92
2023-01-04T15:26:49.717Z,63.08
2023-01-04T15:29:17.633Z,62.38
2023-01-04T15:31:45.637Z,62.22
2023-01-04T15:34:15.279Z,62.05
2023-01-04T15:36:43.831Z,62.14
2023-01-04T15:39:14.148Z,62.18
2023-01-04T15:42:00.589Z,62.51
2023-01-04T15:44:28.662Z,62.14
2023-01-04T15:46:59.472Z,61.90
2023-01-04T15:49:29.912Z,61.80
2023-01-04T15:51:58.442Z,62.25
2023-01-04T15:54:26.989Z,61.93
2023-01-04T15:56:56.613Z,61.98
2023-01-04T15:59:25.966Z,61.57
2023-01-04T16:01:54.281Z,61.86
2023-01-04T16:04:22.798Z,61.73
2023-01-04T16:06:52.083Z,61.71
2023-01-04T16:09:20.119Z,61.66
2023-01-04T16:12:06.199Z,61.85
2023-01-04T16:14:34.335Z,61.66
2023-01-04T16:17:02.543Z,61.61
2023-01-04T16:19:34.281Z,61.71
2023-01-04T16:22:03.844Z,61.71
2023-01-04T16:27:20.332Z,61.08
2023-01-04T16:29:50.460Z,61.28
2023-01-04T16:32:18.807Z,61.11
2023-01-04T16:34:47.347Z,60.93
2023-01-04T16:37:17.011Z,61.25
2023-01-04T16:42:34.285Z,61.35
2023-01-04T16:45:02.239Z,61.21
2023-01-04T16:47:30.480Z,61.11
2023-01-04T16:49:58.806Z,60.95
2023-01-04T16:52:29.631Z,61.10
2023-01-04T16:54:57.633Z,60.87
2023-01-04T16:57:25.841Z,60.72
2023-01-04T16:59:53.942Z,60.85
2023-01-04T17:02:23.178Z,60.61
2023-01-04T17:04:55.530Z,60.60
2023-01-04T17:07:23.938Z,60.80
2023-01-04T17:09:53.759Z,60.85
2023-01-04T17:17:59.721Z,60.81
2023-01-04T17:20:28.198Z,61.02
2023-01-04T17:22:56.054Z,61.45
2023-01-04T17:25:25.314Z,62.19
2023-01-04T17:27:53.516Z,61.68
2023-01-04T17:30:21.688Z,61.36
2023-01-04T17:32:49.725Z,61.92
2023-01-04T17:35:18.208Z,61.15
2023-01-04T17:37:46.192Z,60.96
2023-01-04T17:40:19.049Z,61.38
2023-01-04T17:42:52.470Z,60.88
2023-01-04T17:45:20.796Z,60.93
2023-01-04T17:47:49.082Z,61.49
2023-01-04T17:50:18.196Z,60.76
2023-01-04T17:52:47.549Z,61.35
2023-01-04T17:55:16.121Z,61.76
2023-01-04T17:57:44.724Z,61.84
2023-01-04T18:00:16.042Z,62.29
2023-01-04T18:02:44.774Z,62.59
2023-01-04T18:05:12.864Z,61.78
2023-01-04T18:07:40.910Z,62.53
2023-01-04T18:10:20.769Z,62.47
2023-01-04T18:12:49.476Z,61.73
2023-01-04T18:15:20.057Z,63.87
2023-01-04T18:17:48.149Z,62.20
2023-01-04T18:20:24.713Z,62.14
2023-01-04T18:22:53.694Z,62.93
2023-01-04T18:25:21.998Z,61.92
2023-01-04T18:27:50.324Z,62.03
2023-01-04T18:30:20.322Z,62.48
2023-01-04T18:32:51.743Z,61.61
2023-01-04T18:35:20.062Z,62.09
2023-01-04T18:37:48.045Z,62.06
2023-01-04T18:40:16.379Z,62.09
2023-01-04T18:42:48.343Z,61.58
2023-01-04T18:45:17.012Z,61.53
2023-01-04T18:47:47.995Z,61.29
2023-01-04T18:50:16.568Z,61.71
2023-01-04T18:52:44.642Z,61.39
2023-01-04T18:55:13.242Z,61.30
2023-01-04T18:57:41.628Z,61.68
2023-01-04T19:00:11.597Z,61.21
2023-01-04T19:02:40.258Z,60.64
2023-01-04T19:05:11.315Z,60.46
2023-01-04T19:07:40.261Z,60.46
2023-01-04T19:10:09.379Z,60.65
2023-01-04T19:12:38.878Z,60.18
2023-01-04T19:15:09.243Z,60.91
2023-01-04T19:17:37.361Z,60.34
2023-01-04T19:20:06.222Z,60.52
2023-01-04T19:22:35.853Z,60.49
2023-01-04T19:25:04.042Z,60.30
2023-01-04T19:27:32.254Z,59.93
2023-01-04T19:30:00.674Z,60.06
2023-01-04T19:32:33.469Z,59.31
2023-01-04T19:35:02.602Z,59.46
2023-01-04T19:37:30.818Z,59.72
2023-01-04T19:40:00.391Z,60.10
2023-01-04T19:42:28.697Z,59.55
2023-01-04T19:44:56.674Z,59.83
2023-01-04T19:47:24.969Z,59.41
2023-01-04T19:49:53.240Z,59.48
2023-01-04T19:52:21.566Z,60.03
2023-01-04T19:54:49.753Z,59.63
2023-01-04T19:57:19.410Z,59.91
2023-01-04T19:59:47.489Z,59.83
2023-01-04T20:02:15.750Z,59.83
2023-01-04T20:04:44.149Z,59.43
2023-01-04T20:07:12.665Z,59.58
2023-01-04T20:09:40.730Z,59.44
2023-01-04T20:12:09.113Z,59.54
2023-01-04T20:14:39.396Z,59.90
2023-01-04T20:17:07.748Z,59.95
2023-01-04T20:19:36.356Z,60.38
2023-01-04T20:22:04.301Z,60.31
2023-01-04T20:24:32.558Z,60.96
2023-01-04T20:27:00.851Z,60.52
2023-01-04T20:29:28.972Z,60.56
2023-01-04T20:32:00.623Z,60.86
2023-01-04T20:34:28.873Z,60.59
2023-01-04T20:36:56.931Z,60.38
2023-01-04T20:39:25.231Z,60.47
2023-01-04T20:42:11.135Z,60.39
2023-01-04T20:44:39.323Z,60.07
2023-01-04T20:47:09.004Z,60.28
2023-01-04T20:49:37.112Z,60.37
2023-01-04T20:52:05.447Z,60.45
2023-01-04T20:54:33.826Z,60.08
2023-01-04T20:57:01.930Z,60.51
2023-01-04T20:59:30.064Z,60.14
2023-01-04T21:01:58.608Z,60.28
2023-01-04T21:04:28.491Z,60.80
2023-01-04T21:06:56.540Z,61.10
2023-01-04T21:09:24.846Z,60.43
2023-01-04T21:11:56.325Z,60.55
2023-01-04T21:14:25.567Z,60.43
2023-01-04T21:16:53.597Z,60.51
2023-01-04T21:19:24.232Z,60.62
2023-01-04T21:21:53.965Z,60.69
2023-01-04T21:24:22.068Z,60.47
2023-01-04T21:26:50.226Z,60.53
2023-01-04T21:29:18.729Z,60.32
2023-01-04T21:31:46.721Z,60.92
2023-01-04T21:34:19.504Z,60.19
2023-01-04T21:36:50.922Z,60.53
2023-01-04T21:39:20.424Z,61.12
2023-01-04T21:41:51.209Z,60.42
2023-01-04T21:44:19.715Z,60.59
2023-01-04T21:46:47.765Z,60.52
2023-01-04T21:49:15.832Z,60.61
2023-01-04T21:51:44.171Z,60.38
2023-01-04T21:54:12.160Z,60.43
2023-01-04T21:56:41.556Z,60.46
2023-01-04T21:59:10.253Z,60.70
2023-01-04T22:01:38.316Z,60.49
2023-01-04T22:04:07.489Z,60.14
2023-01-04T22:06:38.607Z,60.25
2023-01-04T22:09:20.145Z,59.64
2023-01-04T22:12:25.739Z,60.17
2023-01-04T22:36:19.109Z,60.29
2023-01-04T22:44:50.161Z,59.91
2023-01-04T22:47:42.959Z,59.43
2023-01-04T22:50:12.087Z,59.43
2023-01-04T22:52:44.611Z,59.15
2023-01-04T22:55:17.299Z,59.15
2023-01-04T22:57:45.593Z,59.63
2023-01-04T23:00:18.080Z,59.23
2023-01-04T23:02:46.716Z,58.98
2023-01-04T23:05:28.932Z,59.01
2023-01-04T23:07:58.624Z,58.77
2023-01-04T23:10:26.718Z,58.77
2023-01-04T23:12:54.760Z,58.81
2023-01-04T23:15:23.066Z,58.65
2023-01-04T23:17:51.102Z,58.57
2023-01-04T23:20:20.510Z,58.60
2023-01-04T23:22:48.931Z,58.63
2023-01-04T23:25:18.260Z,58.62
2023-01-04T23:27:46.440Z,58.50
2023-01-04T23:30:15.261Z,58.43
2023-01-04T23:32:44.186Z,58.55
2023-01-04T23:35:12.237Z,59.04
2023-01-04T23:37:40.557Z,58.22
2023-01-04T23:40:09.107Z,58.31
2023-01-04T23:42:39.760Z,58.22
2023-01-04T23:45:09.263Z,57.72
2023-01-04T23:47:37.365Z,57.79
2023-01-04T23:50:06.101Z,57.75
2023-01-04T23:52:34.445Z,57.89
2023-01-04T23:55:02.527Z,57.64
2023-01-04T23:57:30.556Z,58.08
